createdAt,value
2018-07-05T00:01:37.257Z,23.52
2018-07-05T00:04:16.819Z,23.48
2018-07-05T00:06:56.399Z,23.44
2018-07-05T00:09:35.972Z,23.45
2018-07-05T00:12:15.531Z,23.47
2018-07-05T00:14:55.131Z,23.47
2018-07-05T00:17:34.621Z,23.45
2018-07-05T00:20:14.223Z,23.42
2018-07-05T00:22:53.797Z,23.39
2018-07-05T00:25:33.298Z,23.36
2018-07-05T00:28:12.920Z,23.34
2018-07-05T00:30:52.384Z,23.36
2018-07-05T00:33:31.966Z,23.36
2018-07-05T00:36:11.643Z,23.36
2018-07-05T00:38:51.355Z,23.37
2018-07-05T00:41:30.983Z,23.33
2018-07-05T00:44:10.618Z,23.33
2018-07-05T00:46:50.286Z,23.30
2018-07-05T00:49:29.928Z,23.29
2018-07-05T00:52:09.539Z,23.24
2018-07-05T00:54:49.299Z,23.20
2018-07-05T00:57:28.923Z,23.19
2018-07-05T01:00:08.682Z,23.18
2018-07-05T01:02:48.340Z,23.17
2018-07-05T01:05:27.858Z,23.15
2018-07-05T01:08:07.481Z,23.12
2018-07-05T01:10:47.180Z,23.08
2018-07-05T01:13:26.756Z,23.03
2018-07-05T01:16:06.340Z,23.02
2018-07-05T01:18:45.832Z,23.01
2018-07-05T01:21:25.313Z,23.00
2018-07-05T01:24:04.819Z,23.02
2018-07-05T01:26:44.351Z,23.01
2018-07-05T01:29:24.035Z,22.99
2018-07-05T01:32:03.515Z,23.00
2018-07-05T01:34:43.184Z,23.02
2018-07-05T01:37:22.694Z,23.04
2018-07-05T01:40:02.367Z,23.07
2018-07-05T01:42:42.036Z,23.08
2018-07-05T01:45:21.592Z,23.10
2018-07-05T01:48:01.141Z,23.11
2018-07-05T01:50:40.779Z,23.12
2018-07-05T01:53:20.460Z,23.13
2018-07-05T01:56:00.158Z,23.15
2018-07-05T01:58:39.832Z,23.17
2018-07-05T02:01:19.486Z,23.15
2018-07-05T02:03:59.050Z,23.13
2018-07-05T02:06:38.577Z,23.11
2018-07-05T02:09:18.153Z,23.09
2018-07-05T02:11:57.807Z,23.07
2018-07-05T02:14:37.427Z,23.05
2018-07-05T02:17:17.090Z,23.01
2018-07-05T02:19:56.720Z,22.98
2018-07-05T02:22:36.359Z,22.96
2018-07-05T02:25:16.002Z,22.95
2018-07-05T02:27:55.634Z,22.92
2018-07-05T02:30:35.284Z,22.90
2018-07-05T02:33:14.887Z,22.87
2018-07-05T02:35:54.419Z,22.84
2018-07-05T02:38:33.947Z,22.82
2018-07-05T02:41:13.575Z,22.81
2018-07-05T02:43:53.258Z,22.80
2018-07-05T02:46:32.915Z,22.78
2018-07-05T02:49:12.730Z,22.76
2018-07-05T02:51:52.414Z,22.74
2018-07-05T02:54:32.097Z,22.71
2018-07-05T02:57:11.912Z,22.68
2018-07-05T02:59:51.571Z,22.64
2018-07-05T03:02:31.209Z,22.63
2018-07-05T03:05:10.815Z,22.61
2018-07-05T03:07:50.476Z,22.57
2018-07-05T03:10:30.083Z,22.56
2018-07-05T03:13:09.683Z,22.51
2018-07-05T03:15:49.286Z,22.45
2018-07-05T03:18:28.888Z,22.42
2018-07-05T03:21:08.575Z,22.41
2018-07-05T03:23:48.355Z,22.42
2018-07-05T03:26:27.994Z,22.40
2018-07-05T03:29:07.715Z,22.36
2018-07-05T03:31:47.351Z,22.37
2018-07-05T03:34:26.987Z,22.36
2018-07-05T03:37:06.690Z,22.35
2018-07-05T03:39:46.331Z,22.35
2018-07-05T03:42:26.100Z,22.33
2018-07-05T03:45:05.718Z,22.29
2018-07-05T03:47:45.319Z,22.26
2018-07-05T03:50:24.983Z,22.21
2018-07-05T03:53:04.484Z,22.20
2018-07-05T03:55:44.139Z,22.21
2018-07-05T03:58:23.757Z,22.19
2018-07-05T04:01:03.225Z,22.15
2018-07-05T04:03:42.870Z,22.12
2018-07-05T04:06:22.336Z,22.15
2018-07-05T04:09:01.974Z,22.17
2018-07-05T04:11:41.480Z,22.17
2018-07-05T04:14:21.449Z,22.16
2018-07-05T04:17:01.008Z,22.15
2018-07-05T04:19:45.514Z,22.18
2018-07-05T04:22:25.206Z,22.24
2018-07-05T04:25:05.692Z,22.28
2018-07-05T04:27:45.069Z,22.34
2018-07-05T04:30:24.722Z,22.35
2018-07-05T04:33:04.236Z,22.36
2018-07-05T04:35:43.838Z,22.38
2018-07-05T04:38:36.332Z,22.37
2018-07-05T04:41:15.846Z,22.37
2018-07-05T04:43:55.427Z,22.39
2018-07-05T04:46:35.081Z,22.39
2018-07-05T04:49:14.634Z,22.38
2018-07-05T04:51:54.166Z,22.35
2018-07-05T04:54:33.873Z,22.32
2018-07-05T04:57:13.633Z,22.30
2018-07-05T04:59:53.230Z,22.25
2018-07-05T05:02:33.791Z,22.22
2018-07-05T05:05:13.436Z,22.23
2018-07-05T05:07:55.896Z,22.23
2018-07-05T05:10:36.187Z,22.24
2018-07-05T05:13:16.117Z,22.24
2018-07-05T05:15:56.024Z,22.23
2018-07-05T05:18:35.784Z,22.25
2018-07-05T05:21:15.554Z,22.29
2018-07-05T05:23:55.044Z,22.31
2018-07-05T05:26:34.973Z,22.32
2018-07-05T05:29:14.528Z,22.32
2018-07-05T05:31:54.235Z,22.31
2018-07-05T05:34:33.831Z,22.32
2018-07-05T05:37:13.484Z,22.34
2018-07-05T05:39:53.190Z,22.35
2018-07-05T05:42:32.813Z,22.36
2018-07-05T05:45:12.918Z,22.37
2018-07-05T05:47:52.617Z,22.37
2018-07-05T05:50:32.327Z,22.36
2018-07-05T05:53:11.940Z,22.37
2018-07-05T05:55:51.618Z,22.39
2018-07-05T05:58:31.277Z,22.40
2018-07-05T06:01:10.892Z,22.39
2018-07-05T06:03:50.457Z,22.38
2018-07-05T06:06:30.166Z,22.36
2018-07-05T06:09:09.882Z,22.37
2018-07-05T06:11:49.579Z,22.37
2018-07-05T06:14:29.184Z,22.35
2018-07-05T06:17:08.800Z,22.33
2018-07-05T06:19:48.361Z,22.32
2018-07-05T06:22:27.877Z,22.30
2018-07-05T06:25:07.432Z,22.28
2018-07-05T06:27:46.996Z,22.28
2018-07-05T06:30:26.537Z,22.27
2018-07-05T06:33:06.174Z,22.26
2018-07-05T06:35:45.720Z,22.26
2018-07-05T06:38:25.232Z,22.25
2018-07-05T06:41:04.881Z,22.25
2018-07-05T06:43:44.589Z,22.26
2018-07-05T06:46:24.127Z,22.27
2018-07-05T06:49:03.819Z,22.31
2018-07-05T06:51:43.410Z,22.33
2018-07-05T06:54:23.025Z,22.34
2018-07-05T06:57:02.696Z,22.38
2018-07-05T06:59:42.240Z,22.42
2018-07-05T07:02:21.907Z,22.46
2018-07-05T07:05:01.722Z,22.48
2018-07-05T07:07:41.425Z,22.54
2018-07-05T07:10:21.001Z,22.58
2018-07-05T07:13:00.630Z,22.59
2018-07-05T07:15:40.311Z,22.61
2018-07-05T07:18:20.023Z,22.65
2018-07-05T07:20:59.587Z,22.72
2018-07-05T07:23:39.195Z,22.75
2018-07-05T07:26:18.857Z,22.76
2018-07-05T07:28:58.511Z,22.78
2018-07-05T07:31:38.227Z,22.82
2018-07-05T07:34:17.790Z,22.84
2018-07-05T07:36:57.388Z,22.88
2018-07-05T07:39:37.045Z,22.93
2018-07-05T07:42:04.220Z,22.97
2018-07-05T07:44:31.391Z,23.06
2018-07-05T07:46:58.607Z,23.11
2018-07-05T07:49:25.768Z,23.15
2018-07-05T07:51:52.928Z,23.21
2018-07-05T07:54:20.111Z,23.25
2018-07-05T07:56:47.272Z,23.31
2018-07-05T07:59:14.447Z,23.36
2018-07-05T08:01:41.769Z,23.41
2018-07-05T08:04:08.959Z,23.42
2018-07-05T08:06:36.142Z,23.40
2018-07-05T08:09:04.502Z,23.41
2018-07-05T08:11:31.728Z,23.37
2018-07-05T08:13:58.898Z,23.38
2018-07-05T08:16:26.074Z,23.38
2018-07-05T08:18:53.256Z,23.34
2018-07-05T08:21:20.407Z,23.36
2018-07-05T08:23:47.649Z,23.42
2018-07-05T08:26:14.796Z,23.46
2018-07-05T08:28:42.003Z,23.50
2018-07-05T08:31:09.171Z,23.53
2018-07-05T08:33:36.357Z,23.58
2018-07-05T08:36:03.552Z,23.60
2018-07-05T08:38:30.739Z,23.67
2018-07-05T08:40:57.903Z,23.73
2018-07-05T08:43:25.121Z,23.76
2018-07-05T08:45:52.283Z,23.78
2018-07-05T08:48:19.470Z,23.79
2018-07-05T08:50:46.632Z,23.80
2018-07-05T08:53:13.801Z,23.84
2018-07-05T08:55:40.971Z,23.87
2018-07-05T08:58:08.146Z,23.88
2018-07-05T09:00:35.339Z,23.87
2018-07-05T09:03:02.570Z,23.88
2018-07-05T09:05:29.747Z,23.90
2018-07-05T09:07:56.947Z,23.93
2018-07-05T09:10:24.139Z,23.95
2018-07-05T09:12:51.313Z,23.97
2018-07-05T09:15:18.487Z,23.99
2018-07-05T09:17:45.947Z,24.04
2018-07-05T09:20:13.220Z,24.09
2018-07-05T09:22:41.089Z,24.11
2018-07-05T09:25:08.244Z,24.15
2018-07-05T09:27:35.456Z,24.18
2018-07-05T09:30:02.881Z,24.20
2018-07-05T09:32:30.055Z,24.23
2018-07-05T09:34:57.224Z,24.23
2018-07-05T09:37:24.500Z,24.23
2018-07-05T09:39:51.666Z,24.23
2018-07-05T09:42:19.394Z,24.27
2018-07-05T09:44:46.584Z,24.30
2018-07-05T09:47:13.736Z,24.36
2018-07-05T09:49:40.896Z,24.44
2018-07-05T09:52:08.087Z,24.51
2018-07-05T09:54:35.283Z,24.60
2018-07-05T09:57:02.447Z,24.66
2018-07-05T09:59:29.620Z,24.70
2018-07-05T10:01:56.781Z,24.72
2018-07-05T10:04:23.942Z,24.76
2018-07-05T10:06:51.136Z,24.80
2018-07-05T10:09:18.313Z,24.87
2018-07-05T10:11:45.679Z,24.94
2018-07-05T10:14:12.951Z,25.03
2018-07-05T10:16:40.112Z,25.06
2018-07-05T10:19:08.451Z,25.12
2018-07-05T10:21:35.617Z,25.15
2018-07-05T10:24:02.800Z,25.17
2018-07-05T10:26:30.066Z,25.19
2018-07-05T10:29:09.983Z,25.27
2018-07-05T10:31:49.716Z,25.35
2018-07-05T10:34:16.913Z,25.44
2018-07-05T10:36:44.158Z,25.52
2018-07-05T10:39:11.408Z,25.60
2018-07-05T10:41:51.083Z,25.69
2018-07-05T10:44:30.803Z,25.78
2018-07-05T10:47:10.370Z,25.91
2018-07-05T10:49:49.995Z,25.98
2018-07-05T10:52:29.802Z,25.99
2018-07-05T10:55:09.591Z,26.03
2018-07-05T10:57:49.199Z,25.96
2018-07-05T11:00:28.837Z,25.86
2018-07-05T11:03:08.467Z,25.79
2018-07-05T11:05:48.038Z,25.76
2018-07-05T11:08:27.647Z,25.74
2018-07-05T11:11:07.402Z,25.79
2018-07-05T11:13:47.132Z,25.95
2018-07-05T11:16:26.873Z,26.16
2018-07-05T11:19:06.592Z,26.43
2018-07-05T11:21:46.220Z,26.62
2018-07-05T11:24:25.901Z,26.71
2018-07-05T11:27:05.729Z,26.98
2018-07-05T11:29:45.533Z,27.20
2018-07-05T11:32:25.281Z,27.40
2018-07-05T11:35:04.812Z,27.60
2018-07-05T11:37:44.416Z,27.71
2018-07-05T11:40:24.044Z,27.87
2018-07-05T11:43:03.734Z,28.15
2018-07-05T11:45:43.373Z,28.40
2018-07-05T11:48:22.970Z,28.58
2018-07-05T11:51:02.544Z,28.72
2018-07-05T11:53:43.594Z,28.86
2018-07-05T11:56:23.367Z,28.88
2018-07-05T11:59:03.140Z,28.89
2018-07-05T12:01:42.746Z,28.95
2018-07-05T12:04:22.406Z,28.92
2018-07-05T12:07:02.117Z,28.96
2018-07-05T12:09:41.850Z,29.02
2018-07-05T12:12:21.475Z,29.01
2018-07-05T12:15:01.301Z,29.00
2018-07-05T12:17:40.747Z,28.77
2018-07-05T12:20:20.263Z,28.53
2018-07-05T12:22:59.783Z,28.28
2018-07-05T12:25:39.249Z,28.18
2018-07-05T12:28:18.751Z,28.13
2018-07-05T12:30:58.306Z,28.16
2018-07-05T12:33:37.945Z,28.18
2018-07-05T12:36:17.543Z,28.11
2018-07-05T12:38:57.153Z,28.01
2018-07-05T12:41:36.929Z,27.89
2018-07-05T12:44:16.522Z,27.88
2018-07-05T12:46:56.290Z,27.87
2018-07-05T12:49:35.871Z,27.89
2018-07-05T12:52:15.641Z,27.91
2018-07-05T12:54:55.415Z,27.96
2018-07-05T12:57:35.130Z,28.00
2018-07-05T13:00:14.920Z,27.99
2018-07-05T13:02:54.526Z,27.91
2018-07-05T13:05:34.141Z,27.79
2018-07-05T13:08:13.734Z,27.73
2018-07-05T13:10:53.247Z,27.73
2018-07-05T13:13:32.739Z,27.83
2018-07-05T13:16:12.508Z,27.99
2018-07-05T13:18:52.171Z,28.18
2018-07-05T13:21:31.714Z,28.25
2018-07-05T13:24:11.350Z,28.24
2018-07-05T13:26:50.795Z,28.18
2018-07-05T13:29:30.419Z,28.14
2018-07-05T13:32:09.972Z,28.07
2018-07-05T13:34:49.459Z,27.96
2018-07-05T13:37:29.268Z,27.90
2018-07-05T13:40:08.936Z,27.83
2018-07-05T13:42:48.595Z,27.70
2018-07-05T13:45:28.323Z,27.56
2018-07-05T13:48:07.960Z,27.44
2018-07-05T13:50:47.812Z,27.37
2018-07-05T13:53:27.855Z,27.30
2018-07-05T13:56:07.368Z,27.28
2018-07-05T13:58:46.967Z,27.30
2018-07-05T14:01:26.563Z,27.36
2018-07-05T14:04:06.241Z,27.50
2018-07-05T14:06:45.860Z,27.73
2018-07-05T14:09:25.404Z,27.83
2018-07-05T14:12:05.036Z,27.97
2018-07-05T14:14:44.698Z,28.01
2018-07-05T14:17:24.349Z,28.07
2018-07-05T14:20:04.968Z,28.07
2018-07-05T14:22:44.564Z,28.13
2018-07-05T14:25:24.148Z,28.29
2018-07-05T14:28:03.734Z,28.46
2018-07-05T14:30:43.408Z,28.61
2018-07-05T14:33:22.924Z,28.76
2018-07-05T14:36:02.501Z,28.89
2018-07-05T14:38:42.170Z,28.89
2018-07-05T14:41:21.772Z,28.83
2018-07-05T14:44:01.437Z,28.76
2018-07-05T14:46:40.884Z,28.72
2018-07-05T14:49:20.483Z,28.75
2018-07-05T14:52:00.109Z,28.82
2018-07-05T14:54:39.627Z,28.75
2018-07-05T14:57:19.147Z,28.56
2018-07-05T14:59:58.674Z,28.45
2018-07-05T15:02:38.249Z,28.37
2018-07-05T15:05:18.023Z,28.26
2018-07-05T15:07:57.478Z,28.20
2018-07-05T15:10:37.085Z,28.16
2018-07-05T15:13:16.608Z,28.09
2018-07-05T15:15:56.322Z,28.04
2018-07-05T15:18:35.859Z,27.98
2018-07-05T15:21:15.388Z,27.96
2018-07-05T15:23:55.038Z,27.97
2018-07-05T15:26:34.617Z,27.97
2018-07-05T15:29:14.159Z,27.94
2018-07-05T15:31:53.659Z,27.89
2018-07-05T15:34:33.296Z,27.86
2018-07-05T15:37:13.015Z,27.86
2018-07-05T15:39:52.629Z,27.84
2018-07-05T15:42:32.292Z,27.83
2018-07-05T15:45:11.875Z,27.81
2018-07-05T15:47:51.482Z,27.81
2018-07-05T15:50:31.234Z,27.80
2018-07-05T15:53:10.901Z,27.80
2018-07-05T15:55:50.390Z,27.76
2018-07-05T15:58:30.025Z,27.71
2018-07-05T16:01:09.611Z,27.65
2018-07-05T16:03:49.143Z,27.61
2018-07-05T16:06:28.691Z,27.56
2018-07-05T16:09:08.326Z,27.54
2018-07-05T16:11:48.007Z,27.53
2018-07-05T16:14:28.761Z,27.52
2018-07-05T16:17:08.390Z,27.49
2018-07-05T16:19:48.254Z,27.39
2018-07-05T16:22:28.442Z,27.40
2018-07-05T16:25:08.038Z,27.36
2018-07-05T16:27:47.985Z,27.29
2018-07-05T16:30:27.884Z,27.25
2018-07-05T16:33:07.477Z,27.17
2018-07-05T16:35:47.135Z,27.22
2018-07-05T16:38:26.816Z,27.18
2018-07-05T16:41:06.951Z,27.13
2018-07-05T16:43:46.889Z,27.10
2018-07-05T16:46:26.515Z,27.11
2018-07-05T16:49:06.071Z,27.41
2018-07-05T16:51:45.628Z,27.62
2018-07-05T16:54:25.118Z,27.64
2018-07-05T16:57:04.683Z,27.77
2018-07-05T16:59:44.250Z,28.09
2018-07-05T17:02:23.792Z,28.34
2018-07-05T17:05:03.327Z,28.39
2018-07-05T17:07:42.965Z,28.32
2018-07-05T17:10:22.823Z,28.32
2018-07-05T17:13:02.489Z,28.19
2018-07-05T17:15:42.096Z,28.15
2018-07-05T17:18:21.767Z,28.29
2018-07-05T17:21:01.772Z,28.43
2018-07-05T17:23:41.320Z,28.41
2018-07-05T17:26:20.946Z,28.18
2018-07-05T17:29:00.408Z,27.95
2018-07-05T17:31:40.156Z,27.87
2018-07-05T17:34:19.960Z,27.81
2018-07-05T17:36:59.619Z,27.68
2018-07-05T17:39:39.306Z,27.69
2018-07-05T17:42:19.028Z,27.74
2018-07-05T17:44:58.772Z,27.72
2018-07-05T17:47:38.317Z,27.61
2018-07-05T17:50:17.862Z,27.47
2018-07-05T17:52:57.490Z,27.40
2018-07-05T17:55:37.379Z,27.38
2018-07-05T17:58:17.040Z,27.37
2018-07-05T18:00:56.742Z,27.37
2018-07-05T18:03:36.481Z,27.36
2018-07-05T18:06:16.251Z,27.30
2018-07-05T18:08:55.985Z,27.24
2018-07-05T18:11:35.623Z,27.14
2018-07-05T18:14:15.157Z,27.06
2018-07-05T18:16:54.757Z,26.98
2018-07-05T18:19:34.407Z,26.86
2018-07-05T18:22:13.989Z,26.77
2018-07-05T18:24:53.454Z,26.65
2018-07-05T18:27:33.015Z,26.61
2018-07-05T18:30:12.521Z,26.53
2018-07-05T18:32:52.188Z,26.54
2018-07-05T18:35:31.651Z,26.54
2018-07-05T18:38:11.673Z,26.53
2018-07-05T18:40:51.341Z,26.52
2018-07-05T18:43:30.961Z,26.50
2018-07-05T18:46:10.713Z,26.49
2018-07-05T18:48:50.408Z,26.45
2018-07-05T18:51:30.244Z,26.42
2018-07-05T18:54:09.809Z,26.39
2018-07-05T18:56:49.589Z,26.36
2018-07-05T18:59:29.297Z,26.31
2018-07-05T19:02:08.908Z,26.28
2018-07-05T19:04:48.447Z,26.19
2018-07-05T19:07:28.084Z,26.11
2018-07-05T19:10:07.739Z,26.12
2018-07-05T19:12:47.281Z,26.07
2018-07-05T19:15:26.819Z,26.01
2018-07-05T19:18:06.467Z,25.96
2018-07-05T19:20:46.187Z,25.90
2018-07-05T19:23:25.980Z,25.85
2018-07-05T19:26:05.688Z,25.79
2018-07-05T19:28:45.315Z,25.72
2018-07-05T19:31:25.107Z,25.67
2018-07-05T19:34:04.740Z,25.62
2018-07-05T19:36:44.533Z,25.57
2018-07-05T19:39:24.254Z,25.53
2018-07-05T19:42:03.996Z,25.50
2018-07-05T19:44:44.342Z,25.45
2018-07-05T19:47:24.463Z,25.41
2018-07-05T19:50:04.248Z,25.37
2018-07-05T19:52:43.868Z,25.33
2018-07-05T19:55:23.569Z,25.29
2018-07-05T19:58:03.160Z,25.26
2018-07-05T20:00:42.794Z,25.22
2018-07-05T20:03:22.703Z,25.19
2018-07-05T20:06:02.299Z,25.15
2018-07-05T20:08:41.841Z,25.12
2018-07-05T20:11:21.440Z,25.10
2018-07-05T20:14:01.638Z,25.07
2018-07-05T20:16:41.364Z,25.03
2018-07-05T20:19:21.215Z,25.00
2018-07-05T20:22:00.900Z,24.95
2018-07-05T20:24:40.608Z,24.92
2018-07-05T20:27:20.183Z,24.90
2018-07-05T20:29:59.729Z,24.86
2018-07-05T20:32:39.382Z,24.85
2018-07-05T20:35:19.115Z,24.81
2018-07-05T20:37:58.905Z,24.81
2018-07-05T20:40:38.610Z,24.78
2018-07-05T20:43:18.325Z,24.76
2018-07-05T20:45:58.027Z,24.75
2018-07-05T20:48:37.612Z,24.73
2018-07-05T20:51:17.348Z,24.72
2018-07-05T20:53:56.940Z,24.69
2018-07-05T20:56:36.652Z,24.67
2018-07-05T20:59:16.249Z,24.64
2018-07-05T21:01:55.797Z,24.61
2018-07-05T21:04:35.386Z,24.59
2018-07-05T21:07:14.936Z,24.58
2018-07-05T21:09:54.475Z,24.57
2018-07-05T21:12:34.027Z,24.55
2018-07-05T21:15:13.639Z,24.54
2018-07-05T21:17:53.186Z,24.51
2018-07-05T21:20:33.142Z,24.46
2018-07-05T21:23:12.701Z,24.45
2018-07-05T21:25:52.246Z,24.41
2018-07-05T21:28:31.787Z,24.39
2018-07-05T21:31:11.351Z,24.35
2018-07-05T21:33:51.094Z,24.34
2018-07-05T21:36:30.795Z,24.30
2018-07-05T21:39:10.593Z,24.25
2018-07-05T21:41:50.471Z,24.23
2018-07-05T21:44:30.040Z,24.20
2018-07-05T21:47:09.694Z,24.15
2018-07-05T21:49:50.408Z,24.11
2018-07-05T21:52:29.992Z,24.07
2018-07-05T21:55:09.741Z,24.04
2018-07-05T21:57:49.274Z,23.99
2018-07-05T22:00:28.887Z,23.96
2018-07-05T22:03:08.628Z,23.93
2018-07-05T22:05:48.135Z,23.90
2018-07-05T22:08:27.845Z,23.85
2018-07-05T22:11:07.639Z,23.82
2018-07-05T22:13:47.292Z,23.78
2018-07-05T22:16:26.961Z,23.73
2018-07-05T22:19:12.085Z,23.71
2018-07-05T22:21:57.051Z,23.67
2018-07-05T22:24:42.029Z,23.62
2018-07-05T22:27:26.856Z,23.62
2018-07-05T22:30:11.708Z,23.58
2018-07-05T22:32:51.376Z,23.56
2018-07-05T22:35:31.008Z,23.55
2018-07-05T22:38:10.633Z,23.52
2018-07-05T22:40:50.375Z,23.48
2018-07-05T22:43:29.943Z,23.46
2018-07-05T22:46:09.770Z,23.46
2018-07-05T22:48:49.576Z,23.45
2018-07-05T22:51:29.362Z,23.44
2018-07-05T22:54:09.235Z,23.42
2018-07-05T22:56:48.828Z,23.39
2018-07-05T22:59:28.515Z,23.38
2018-07-05T23:02:08.192Z,23.37
2018-07-05T23:04:47.739Z,23.35
2018-07-05T23:07:27.421Z,23.32
2018-07-05T23:10:07.146Z,23.28
2018-07-05T23:12:46.894Z,23.25
2018-07-05T23:15:26.419Z,23.21
2018-07-05T23:18:06.112Z,23.19
2018-07-05T23:20:46.883Z,23.18
2018-07-05T23:23:26.591Z,23.13
2018-07-05T23:26:06.265Z,23.10
2018-07-05T23:28:45.859Z,23.06
2018-07-05T23:31:25.487Z,23.01
2018-07-05T23:34:05.166Z,22.95
2018-07-05T23:36:44.785Z,22.91
2018-07-05T23:39:24.371Z,22.87
2018-07-05T23:42:03.910Z,22.86
2018-07-05T23:44:43.565Z,22.83
2018-07-05T23:47:23.259Z,22.82
2018-07-05T23:50:02.956Z,22.80
2018-07-05T23:52:42.608Z,22.76
2018-07-05T23:55:22.272Z,22.74
2018-07-05T23:58:01.874Z,22.71
